sensor_id;sensor_type;location;lat;lon;timestamp;P1;durP1;ratioP1;P2;durP2;ratioP2
1837;SDS011;918;50.796;6.772;2024-01-25T00:01:53;32.63;;;8.70;;
1837;SDS011;918;50.796;6.772;2024-01-25T00:04:19;23.60;;;8.40;;
1837;SDS011;918;50.796;6.772;2024-01-25T00:06:44;24.83;;;11.10;;
1837;SDS011;918;50.796;6.772;2024-01-25T00:09:09;22.37;;;7.67;;
1837;SDS011;918;50.796;6.772;2024-01-25T00:11:34;26.37;;;9.30;;
1837;SDS011;918;50.796;6.772;2024-01-25T00:14:00;24.90;;;7.93;;
1837;SDS011;918;50.796;6.772;2024-01-25T00:16:27;20.40;;;8.23;;
1837;SDS011;918;50.796;6.772;2024-01-25T00:18:52;24.93;;;8.90;;
1837;SDS011;918;50.796;6.772;2024-01-25T00:21:17;35.40;;;10.70;;
1837;SDS011;918;50.796;6.772;2024-01-25T00:23:43;25.37;;;8.60;;
1837;SDS011;918;50.796;6.772;2024-01-25T00:26:08;23.33;;;9.23;;
1837;SDS011;918;50.796;6.772;2024-01-25T00:28:33;21.07;;;7.40;;
1837;SDS011;918;50.796;6.772;2024-01-25T00:30:58;18.50;;;7.33;;
1837;SDS011;918;50.796;6.772;2024-01-25T00:33:24;25.10;;;8.43;;
1837;SDS011;918;50.796;6.772;2024-01-25T00:35:49;17.47;;;7.40;;
1837;SDS011;918;50.796;6.772;2024-01-25T00:38:15;36.73;;;8.80;;
1837;SDS011;918;50.796;6.772;2024-01-25T00:40:40;27.23;;;9.73;;
1837;SDS011;918;50.796;6.772;2024-01-25T00:43:06;24.07;;;8.23;;
1837;SDS011;918;50.796;6.772;2024-01-25T00:45:31;22.53;;;7.17;;
1837;SDS011;918;50.796;6.772;2024-01-25T00:47:57;21.80;;;8.90;;
1837;SDS011;918;50.796;6.772;2024-01-25T00:50:23;22.00;;;8.43;;
1837;SDS011;918;50.796;6.772;2024-01-25T00:52:50;23.43;;;8.70;;
1837;SDS011;918;50.796;6.772;2024-01-25T00:55:16;22.37;;;8.20;;
1837;SDS011;918;50.796;6.772;2024-01-25T00:57:42;23.87;;;7.77;;
1837;SDS011;918;50.796;6.772;2024-01-25T01:00:08;32.93;;;9.87;;
1837;SDS011;918;50.796;6.772;2024-01-25T01:02:43;31.50;;;8.77;;
1837;SDS011;918;50.796;6.772;2024-01-25T01:05:09;26.93;;;8.03;;
1837;SDS011;918;50.796;6.772;2024-01-25T01:07:35;23.93;;;8.33;;
1837;SDS011;918;50.796;6.772;2024-01-25T01:10:01;28.00;;;8.30;;
1837;SDS011;918;50.796;6.772;2024-01-25T01:12:26;31.90;;;11.30;;
1837;SDS011;918;50.796;6.772;2024-01-25T01:14:51;27.67;;;8.40;;
1837;SDS011;918;50.796;6.772;2024-01-25T01:17:16;31.03;;;9.40;;
1837;SDS011;918;50.796;6.772;2024-01-25T01:19:43;25.30;;;8.20;;
1837;SDS011;918;50.796;6.772;2024-01-25T01:22:09;21.63;;;7.80;;
1837;SDS011;918;50.796;6.772;2024-01-25T01:24:34;28.83;;;8.80;;
1837;SDS011;918;50.796;6.772;2024-01-25T01:26:59;19.10;;;7.17;;
1837;SDS011;918;50.796;6.772;2024-01-25T01:29:25;20.67;;;7.13;;
1837;SDS011;918;50.796;6.772;2024-01-25T01:31:50;23.33;;;9.13;;
1837;SDS011;918;50.796;6.772;2024-01-25T01:34:15;33.03;;;8.10;;
1837;SDS011;918;50.796;6.772;2024-01-25T01:36:42;24.53;;;7.33;;
1837;SDS011;918;50.796;6.772;2024-01-25T01:39:08;20.30;;;7.23;;
1837;SDS011;918;50.796;6.772;2024-01-25T01:41:33;24.93;;;8.23;;
1837;SDS011;918;50.796;6.772;2024-01-25T01:43:58;26.70;;;8.30;;
1837;SDS011;918;50.796;6.772;2024-01-25T01:46:33;24.33;;;7.43;;
1837;SDS011;918;50.796;6.772;2024-01-25T01:49:07;28.97;;;7.80;;
1837;SDS011;918;50.796;6.772;2024-01-25T01:51:35;24.43;;;8.40;;
1837;SDS011;918;50.796;6.772;2024-01-25T01:54:01;22.40;;;8.50;;
1837;SDS011;918;50.796;6.772;2024-01-25T01:56:30;19.37;;;8.37;;
1837;SDS011;918;50.796;6.772;2024-01-25T01:59:02;21.40;;;7.70;;
1837;SDS011;918;50.796;6.772;2024-01-25T02:01:29;31.93;;;8.60;;
1837;SDS011;918;50.796;6.772;2024-01-25T02:03:54;21.37;;;8.57;;
1837;SDS011;918;50.796;6.772;2024-01-25T02:06:20;27.97;;;8.20;;
1837;SDS011;918;50.796;6.772;2024-01-25T02:08:47;24.30;;;7.63;;
1837;SDS011;918;50.796;6.772;2024-01-25T02:11:13;23.53;;;8.40;;
1837;SDS011;918;50.796;6.772;2024-01-25T02:13:38;27.57;;;8.87;;
1837;SDS011;918;50.796;6.772;2024-01-25T02:16:04;22.87;;;8.27;;
1837;SDS011;918;50.796;6.772;2024-01-25T02:18:30;21.00;;;8.27;;
1837;SDS011;918;50.796;6.772;2024-01-25T02:20:55;18.30;;;8.50;;
1837;SDS011;918;50.796;6.772;2024-01-25T02:23:21;22.87;;;7.60;;
1837;SDS011;918;50.796;6.772;2024-01-25T02:25:46;27.17;;;8.73;;
1837;SDS011;918;50.796;6.772;2024-01-25T02:28:11;25.63;;;7.90;;
1837;SDS011;918;50.796;6.772;2024-01-25T02:30:37;27.73;;;9.47;;
1837;SDS011;918;50.796;6.772;2024-01-25T02:33:02;30.33;;;9.00;;
1837;SDS011;918;50.796;6.772;2024-01-25T02:35:27;28.87;;;9.30;;
1837;SDS011;918;50.796;6.772;2024-01-25T02:37:52;21.93;;;8.43;;
1837;SDS011;918;50.796;6.772;2024-01-25T02:40:18;20.87;;;8.53;;
1837;SDS011;918;50.796;6.772;2024-01-25T02:42:43;27.23;;;8.53;;
1837;SDS011;918;50.796;6.772;2024-01-25T02:45:08;34.27;;;9.90;;
1837;SDS011;918;50.796;6.772;2024-01-25T02:47:34;23.63;;;8.50;;
1837;SDS011;918;50.796;6.772;2024-01-25T02:49:59;25.40;;;9.40;;
1837;SDS011;918;50.796;6.772;2024-01-25T02:52:24;23.20;;;8.40;;
1837;SDS011;918;50.796;6.772;2024-01-25T02:54:49;25.47;;;9.63;;
1837;SDS011;918;50.796;6.772;2024-01-25T02:57:15;35.70;;;9.20;;
1837;SDS011;918;50.796;6.772;2024-01-25T02:59:41;23.70;;;8.77;;
1837;SDS011;918;50.796;6.772;2024-01-25T03:02:06;31.63;;;10.30;;
1837;SDS011;918;50.796;6.772;2024-01-25T03:04:31;33.50;;;9.17;;
1837;SDS011;918;50.796;6.772;2024-01-25T03:06:57;24.10;;;8.90;;
1837;SDS011;918;50.796;6.772;2024-01-25T03:09:22;19.43;;;8.97;;
1837;SDS011;918;50.796;6.772;2024-01-25T03:11:48;29.53;;;8.93;;
1837;SDS011;918;50.796;6.772;2024-01-25T03:14:14;23.90;;;8.73;;
1837;SDS011;918;50.796;6.772;2024-01-25T03:16:39;27.50;;;10.00;;
1837;SDS011;918;50.796;6.772;2024-01-25T03:19:05;24.50;;;9.00;;
1837;SDS011;918;50.796;6.772;2024-01-25T03:21:30;27.40;;;9.10;;
1837;SDS011;918;50.796;6.772;2024-01-25T03:23:55;31.07;;;10.53;;
1837;SDS011;918;50.796;6.772;2024-01-25T03:26:20;28.47;;;8.97;;
1837;SDS011;918;50.796;6.772;2024-01-25T03:28:46;29.37;;;10.00;;
1837;SDS011;918;50.796;6.772;2024-01-25T03:31:11;27.47;;;8.43;;
1837;SDS011;918;50.796;6.772;2024-01-25T03:33:36;25.60;;;9.17;;
1837;SDS011;918;50.796;6.772;2024-01-25T03:36:05;26.67;;;8.70;;
1837;SDS011;918;50.796;6.772;2024-01-25T03:38:30;31.20;;;10.40;;
1837;SDS011;918;50.796;6.772;2024-01-25T03:40:56;29.40;;;9.13;;
1837;SDS011;918;50.796;6.772;2024-01-25T03:43:23;25.80;;;9.63;;
1837;SDS011;918;50.796;6.772;2024-01-25T03:45:49;22.77;;;9.40;;
1837;SDS011;918;50.796;6.772;2024-01-25T03:48:14;24.23;;;9.20;;
1837;SDS011;918;50.796;6.772;2024-01-25T03:50:40;27.30;;;8.57;;
1837;SDS011;918;50.796;6.772;2024-01-25T03:53:05;21.57;;;8.10;;
1837;SDS011;918;50.796;6.772;2024-01-25T03:55:31;25.97;;;9.47;;
1837;SDS011;918;50.796;6.772;2024-01-25T03:57:57;27.37;;;10.10;;
1837;SDS011;918;50.796;6.772;2024-01-25T04:00:22;30.80;;;12.13;;
1837;SDS011;918;50.796;6.772;2024-01-25T04:02:47;29.67;;;10.20;;
1837;SDS011;918;50.796;6.772;2024-01-25T04:05:13;27.70;;;10.67;;
1837;SDS011;918;50.796;6.772;2024-01-25T04:07:39;27.70;;;8.90;;
1837;SDS011;918;50.796;6.772;2024-01-25T04:10:04;25.77;;;8.20;;
1837;SDS011;918;50.796;6.772;2024-01-25T04:12:30;26.60;;;9.37;;
1837;SDS011;918;50.796;6.772;2024-01-25T04:14:56;26.47;;;9.40;;
1837;SDS011;918;50.796;6.772;2024-01-25T04:17:21;31.00;;;10.00;;
1837;SDS011;918;50.796;6.772;2024-01-25T04:19:46;32.63;;;9.47;;
1837;SDS011;918;50.796;6.772;2024-01-25T04:22:12;21.83;;;9.00;;
1837;SDS011;918;50.796;6.772;2024-01-25T04:24:37;20.80;;;9.83;;
1837;SDS011;918;50.796;6.772;2024-01-25T04:27:02;26.13;;;9.03;;
1837;SDS011;918;50.796;6.772;2024-01-25T04:29:28;24.27;;;7.60;;
1837;SDS011;918;50.796;6.772;2024-01-25T04:31:53;19.90;;;7.80;;
1837;SDS011;918;50.796;6.772;2024-01-25T04:34:18;22.97;;;8.03;;
1837;SDS011;918;50.796;6.772;2024-01-25T04:36:43;25.37;;;9.27;;
1837;SDS011;918;50.796;6.772;2024-01-25T04:39:09;25.90;;;9.47;;
1837;SDS011;918;50.796;6.772;2024-01-25T04:41:34;25.13;;;9.73;;
1837;SDS011;918;50.796;6.772;2024-01-25T04:43:59;25.60;;;8.83;;
1837;SDS011;918;50.796;6.772;2024-01-25T04:46:24;27.30;;;8.43;;
1837;SDS011;918;50.796;6.772;2024-01-25T04:48:50;25.47;;;8.70;;
1837;SDS011;918;50.796;6.772;2024-01-25T04:51:16;26.80;;;8.63;;
1837;SDS011;918;50.796;6.772;2024-01-25T04:53:42;25.67;;;9.17;;
1837;SDS011;918;50.796;6.772;2024-01-25T04:56:07;23.40;;;8.30;;
1837;SDS011;918;50.796;6.772;2024-01-25T04:58:32;23.40;;;8.60;;
1837;SDS011;918;50.796;6.772;2024-01-25T05:00:58;23.90;;;8.83;;
1837;SDS011;918;50.796;6.772;2024-01-25T05:03:23;18.47;;;7.37;;
1837;SDS011;918;50.796;6.772;2024-01-25T05:05:49;20.80;;;7.97;;
1837;SDS011;918;50.796;6.772;2024-01-25T05:08:14;22.50;;;8.60;;
1837;SDS011;918;50.796;6.772;2024-01-25T05:10:39;16.40;;;7.77;;
1837;SDS011;918;50.796;6.772;2024-01-25T05:13:05;19.63;;;8.10;;
1837;SDS011;918;50.796;6.772;2024-01-25T05:15:30;31.23;;;10.13;;
1837;SDS011;918;50.796;6.772;2024-01-25T05:17:55;26.50;;;10.03;;
1837;SDS011;918;50.796;6.772;2024-01-25T05:20:20;26.10;;;9.73;;
1837;SDS011;918;50.796;6.772;2024-01-25T05:22:46;28.43;;;12.33;;
1837;SDS011;918;50.796;6.772;2024-01-25T05:25:11;22.10;;;10.07;;
1837;SDS011;918;50.796;6.772;2024-01-25T05:27:36;30.87;;;13.87;;
1837;SDS011;918;50.796;6.772;2024-01-25T05:30:02;20.53;;;10.20;;
1837;SDS011;918;50.796;6.772;2024-01-25T05:32:28;19.70;;;8.80;;
1837;SDS011;918;50.796;6.772;2024-01-25T05:34:53;25.87;;;9.83;;
1837;SDS011;918;50.796;6.772;2024-01-25T05:37:18;19.97;;;9.20;;
1837;SDS011;918;50.796;6.772;2024-01-25T05:39:43;22.97;;;8.17;;
1837;SDS011;918;50.796;6.772;2024-01-25T05:42:08;18.97;;;8.00;;
1837;SDS011;918;50.796;6.772;2024-01-25T05:44:34;20.63;;;9.17;;
1837;SDS011;918;50.796;6.772;2024-01-25T05:46:59;26.63;;;8.20;;
1837;SDS011;918;50.796;6.772;2024-01-25T05:49:25;20.40;;;8.53;;
1837;SDS011;918;50.796;6.772;2024-01-25T05:51:50;23.70;;;8.67;;
1837;SDS011;918;50.796;6.772;2024-01-25T05:54:15;30.83;;;10.27;;
1837;SDS011;918;50.796;6.772;2024-01-25T05:56:41;21.63;;;8.07;;
1837;SDS011;918;50.796;6.772;2024-01-25T05:59:06;26.40;;;8.67;;
1837;SDS011;918;50.796;6.772;2024-01-25T06:01:31;20.13;;;10.33;;
1837;SDS011;918;50.796;6.772;2024-01-25T06:03:56;19.00;;;9.27;;
1837;SDS011;918;50.796;6.772;2024-01-25T06:06:22;22.17;;;7.30;;
1837;SDS011;918;50.796;6.772;2024-01-25T06:08:47;21.80;;;9.07;;
1837;SDS011;918;50.796;6.772;2024-01-25T06:11:12;19.97;;;7.90;;
1837;SDS011;918;50.796;6.772;2024-01-25T06:13:37;20.93;;;8.10;;
1837;SDS011;918;50.796;6.772;2024-01-25T06:16:03;20.87;;;7.90;;
1837;SDS011;918;50.796;6.772;2024-01-25T06:18:28;22.17;;;9.37;;
1837;SDS011;918;50.796;6.772;2024-01-25T06:20:53;23.17;;;7.57;;
1837;SDS011;918;50.796;6.772;2024-01-25T06:23:19;16.07;;;7.03;;
1837;SDS011;918;50.796;6.772;2024-01-25T06:25:44;18.70;;;7.40;;
1837;SDS011;918;50.796;6.772;2024-01-25T06:28:09;25.40;;;8.40;;
1837;SDS011;918;50.796;6.772;2024-01-25T06:30:34;21.53;;;8.27;;
1837;SDS011;918;50.796;6.772;2024-01-25T06:33:00;13.27;;;5.77;;
1837;SDS011;918;50.796;6.772;2024-01-25T06:35:25;27.73;;;8.23;;
1837;SDS011;918;50.796;6.772;2024-01-25T06:37:50;22.13;;;7.43;;
1837;SDS011;918;50.796;6.772;2024-01-25T06:40:16;20.87;;;7.43;;
1837;SDS011;918;50.796;6.772;2024-01-25T06:42:41;13.77;;;7.50;;
1837;SDS011;918;50.796;6.772;2024-01-25T06:45:07;18.27;;;7.90;;
1837;SDS011;918;50.796;6.772;2024-01-25T06:47:33;23.43;;;7.60;;
1837;SDS011;918;50.796;6.772;2024-01-25T06:49:58;22.67;;;8.70;;
1837;SDS011;918;50.796;6.772;2024-01-25T06:52:23;18.37;;;8.33;;
1837;SDS011;918;50.796;6.772;2024-01-25T06:54:49;24.43;;;8.90;;
1837;SDS011;918;50.796;6.772;2024-01-25T06:57:14;18.83;;;7.57;;
1837;SDS011;918;50.796;6.772;2024-01-25T06:59:39;19.37;;;8.13;;
1837;SDS011;918;50.796;6.772;2024-01-25T07:02:05;18.37;;;7.23;;
1837;SDS011;918;50.796;6.772;2024-01-25T07:04:30;26.70;;;9.20;;
1837;SDS011;918;50.796;6.772;2024-01-25T07:06:55;18.97;;;8.67;;
1837;SDS011;918;50.796;6.772;2024-01-25T07:09:20;22.80;;;7.77;;
1837;SDS011;918;50.796;6.772;2024-01-25T07:11:46;17.57;;;7.90;;
1837;SDS011;918;50.796;6.772;2024-01-25T07:14:11;18.63;;;7.90;;
1837;SDS011;918;50.796;6.772;2024-01-25T07:16:36;21.73;;;9.87;;
1837;SDS011;918;50.796;6.772;2024-01-25T07:19:02;22.10;;;9.43;;
1837;SDS011;918;50.796;6.772;2024-01-25T07:21:28;19.90;;;8.97;;
1837;SDS011;918;50.796;6.772;2024-01-25T07:23:53;18.00;;;9.13;;
1837;SDS011;918;50.796;6.772;2024-01-25T07:26:18;20.93;;;9.20;;
1837;SDS011;918;50.796;6.772;2024-01-25T07:28:44;14.97;;;9.73;;
1837;SDS011;918;50.796;6.772;2024-01-25T07:31:09;24.53;;;8.70;;
1837;SDS011;918;50.796;6.772;2024-01-25T07:33:35;18.70;;;8.97;;
1837;SDS011;918;50.796;6.772;2024-01-25T07:36:00;21.50;;;9.17;;
1837;SDS011;918;50.796;6.772;2024-01-25T07:38:26;19.30;;;9.00;;
1837;SDS011;918;50.796;6.772;2024-01-25T07:40:51;20.93;;;9.40;;
1837;SDS011;918;50.796;6.772;2024-01-25T07:43:17;21.30;;;10.13;;
1837;SDS011;918;50.796;6.772;2024-01-25T07:45:42;18.63;;;10.40;;
1837;SDS011;918;50.796;6.772;2024-01-25T07:48:07;18.13;;;9.40;;
1837;SDS011;918;50.796;6.772;2024-01-25T07:50:33;22.40;;;10.33;;
1837;SDS011;918;50.796;6.772;2024-01-25T07:52:58;17.00;;;10.37;;
1837;SDS011;918;50.796;6.772;2024-01-25T07:55:25;21.00;;;10.63;;
1837;SDS011;918;50.796;6.772;2024-01-25T07:57:51;24.70;;;10.90;;
1837;SDS011;918;50.796;6.772;2024-01-25T08:00:16;23.03;;;10.20;;
1837;SDS011;918;50.796;6.772;2024-01-25T08:02:42;20.83;;;11.67;;
1837;SDS011;918;50.796;6.772;2024-01-25T08:05:09;23.30;;;12.57;;
1837;SDS011;918;50.796;6.772;2024-01-25T08:07:36;21.00;;;9.97;;
1837;SDS011;918;50.796;6.772;2024-01-25T08:10:02;20.30;;;10.57;;
1837;SDS011;918;50.796;6.772;2024-01-25T08:12:29;16.50;;;9.63;;
1837;SDS011;918;50.796;6.772;2024-01-25T08:14:54;19.27;;;9.63;;
1837;SDS011;918;50.796;6.772;2024-01-25T08:17:20;23.20;;;9.70;;
1837;SDS011;918;50.796;6.772;2024-01-25T08:19:45;18.97;;;10.53;;
1837;SDS011;918;50.796;6.772;2024-01-25T08:22:11;15.53;;;10.07;;
1837;SDS011;918;50.796;6.772;2024-01-25T08:24:38;21.40;;;10.20;;
1837;SDS011;918;50.796;6.772;2024-01-25T08:27:04;21.20;;;11.90;;
1837;SDS011;918;50.796;6.772;2024-01-25T08:29:30;17.90;;;9.03;;
1837;SDS011;918;50.796;6.772;2024-01-25T08:31:55;21.03;;;8.87;;
1837;SDS011;918;50.796;6.772;2024-01-25T08:34:21;17.17;;;9.40;;
1837;SDS011;918;50.796;6.772;2024-01-25T08:36:46;25.93;;;9.47;;
1837;SDS011;918;50.796;6.772;2024-01-25T08:39:12;23.13;;;9.83;;
1837;SDS011;918;50.796;6.772;2024-01-25T08:41:37;18.97;;;9.87;;
1837;SDS011;918;50.796;6.772;2024-01-25T08:44:02;22.87;;;9.57;;
1837;SDS011;918;50.796;6.772;2024-01-25T08:46:28;18.40;;;9.13;;
1837;SDS011;918;50.796;6.772;2024-01-25T08:48:53;21.10;;;9.67;;
1837;SDS011;918;50.796;6.772;2024-01-25T08:51:18;25.40;;;9.10;;
1837;SDS011;918;50.796;6.772;2024-01-25T08:53:44;19.53;;;10.73;;
1837;SDS011;918;50.796;6.772;2024-01-25T08:56:09;19.00;;;9.47;;
1837;SDS011;918;50.796;6.772;2024-01-25T08:58:34;25.30;;;11.20;;
1837;SDS011;918;50.796;6.772;2024-01-25T09:01:00;25.10;;;10.93;;
1837;SDS011;918;50.796;6.772;2024-01-25T09:03:25;27.00;;;9.40;;
1837;SDS011;918;50.796;6.772;2024-01-25T09:05:51;23.30;;;9.00;;
1837;SDS011;918;50.796;6.772;2024-01-25T09:08:16;24.17;;;10.43;;
1837;SDS011;918;50.796;6.772;2024-01-25T09:10:42;20.03;;;10.13;;
1837;SDS011;918;50.796;6.772;2024-01-25T09:13:08;15.77;;;9.27;;
1837;SDS011;918;50.796;6.772;2024-01-25T09:15:33;20.73;;;10.00;;
1837;SDS011;918;50.796;6.772;2024-01-25T09:17:59;23.13;;;10.77;;
1837;SDS011;918;50.796;6.772;2024-01-25T09:20:24;22.30;;;10.90;;
1837;SDS011;918;50.796;6.772;2024-01-25T09:22:50;19.63;;;9.57;;
1837;SDS011;918;50.796;6.772;2024-01-25T09:25:16;24.50;;;11.03;;
1837;SDS011;918;50.796;6.772;2024-01-25T09:27:41;28.07;;;9.70;;
1837;SDS011;918;50.796;6.772;2024-01-25T09:30:06;23.80;;;9.50;;
1837;SDS011;918;50.796;6.772;2024-01-25T09:32:32;25.57;;;9.40;;
1837;SDS011;918;50.796;6.772;2024-01-25T09:34:57;15.80;;;8.33;;
1837;SDS011;918;50.796;6.772;2024-01-25T09:37:22;25.57;;;9.47;;
1837;SDS011;918;50.796;6.772;2024-01-25T09:39:49;14.27;;;7.80;;
1837;SDS011;918;50.796;6.772;2024-01-25T09:42:16;16.67;;;8.53;;
1837;SDS011;918;50.796;6.772;2024-01-25T09:44:42;23.13;;;8.50;;
1837;SDS011;918;50.796;6.772;2024-01-25T09:47:08;18.43;;;9.10;;
1837;SDS011;918;50.796;6.772;2024-01-25T09:49:33;13.40;;;8.23;;
1837;SDS011;918;50.796;6.772;2024-01-25T09:51:59;19.80;;;8.90;;
1837;SDS011;918;50.796;6.772;2024-01-25T09:54:28;19.33;;;8.63;;
1837;SDS011;918;50.796;6.772;2024-01-25T09:56:56;15.07;;;10.07;;
1837;SDS011;918;50.796;6.772;2024-01-25T09:59:22;21.20;;;10.73;;
1837;SDS011;918;50.796;6.772;2024-01-25T10:01:48;25.43;;;10.20;;
1837;SDS011;918;50.796;6.772;2024-01-25T10:04:13;20.50;;;9.60;;
1837;SDS011;918;50.796;6.772;2024-01-25T10:06:39;20.23;;;8.80;;
1837;SDS011;918;50.796;6.772;2024-01-25T10:09:04;21.93;;;10.27;;
1837;SDS011;918;50.796;6.772;2024-01-25T10:11:29;21.33;;;9.30;;
1837;SDS011;918;50.796;6.772;2024-01-25T10:14:00;15.13;;;8.97;;
1837;SDS011;918;50.796;6.772;2024-01-25T10:16:26;19.03;;;9.63;;
1837;SDS011;918;50.796;6.772;2024-01-25T10:18:51;31.43;;;12.00;;
1837;SDS011;918;50.796;6.772;2024-01-25T10:21:17;27.17;;;9.07;;
1837;SDS011;918;50.796;6.772;2024-01-25T10:23:45;19.37;;;9.10;;
1837;SDS011;918;50.796;6.772;2024-01-25T10:26:12;22.00;;;10.40;;
1837;SDS011;918;50.796;6.772;2024-01-25T10:28:37;24.30;;;11.20;;
1837;SDS011;918;50.796;6.772;2024-01-25T10:31:03;19.40;;;11.47;;
1837;SDS011;918;50.796;6.772;2024-01-25T10:33:32;19.40;;;9.17;;
1837;SDS011;918;50.796;6.772;2024-01-25T10:35:58;24.90;;;9.80;;
1837;SDS011;918;50.796;6.772;2024-01-25T10:38:28;24.57;;;10.07;;
1837;SDS011;918;50.796;6.772;2024-01-25T10:41:02;21.27;;;9.53;;
1837;SDS011;918;50.796;6.772;2024-01-25T10:43:28;21.80;;;8.97;;
1837;SDS011;918;50.796;6.772;2024-01-25T10:45:55;15.50;;;7.40;;
1837;SDS011;918;50.796;6.772;2024-01-25T10:48:23;18.73;;;8.33;;
1837;SDS011;918;50.796;6.772;2024-01-25T10:50:48;25.13;;;9.77;;
1837;SDS011;918;50.796;6.772;2024-01-25T10:53:14;30.70;;;12.63;;
1837;SDS011;918;50.796;6.772;2024-01-25T10:55:40;21.40;;;9.50;;
1837;SDS011;918;50.796;6.772;2024-01-25T10:58:06;27.03;;;8.73;;
1837;SDS011;918;50.796;6.772;2024-01-25T11:00:33;14.17;;;8.00;;
1837;SDS011;918;50.796;6.772;2024-01-25T11:03:00;21.43;;;9.70;;
1837;SDS011;918;50.796;6.772;2024-01-25T11:05:25;16.13;;;8.17;;
1837;SDS011;918;50.796;6.772;2024-01-25T11:07:51;17.27;;;7.83;;
1837;SDS011;918;50.796;6.772;2024-01-25T11:10:17;21.53;;;8.03;;
1837;SDS011;918;50.796;6.772;2024-01-25T11:12:49;26.27;;;9.47;;
1837;SDS011;918;50.796;6.772;2024-01-25T11:15:22;22.70;;;8.00;;
1837;SDS011;918;50.796;6.772;2024-01-25T11:17:55;15.70;;;8.03;;
1837;SDS011;918;50.796;6.772;2024-01-25T11:20:22;16.50;;;8.43;;
1837;SDS011;918;50.796;6.772;2024-01-25T11:22:48;17.87;;;9.00;;
1837;SDS011;918;50.796;6.772;2024-01-25T11:25:13;18.60;;;8.20;;
1837;SDS011;918;50.796;6.772;2024-01-25T11:27:45;22.70;;;8.73;;
1837;SDS011;918;50.796;6.772;2024-01-25T11:30:10;21.03;;;8.43;;
1837;SDS011;918;50.796;6.772;2024-01-25T11:32:38;26.00;;;8.47;;
1837;SDS011;918;50.796;6.772;2024-01-25T11:35:04;20.80;;;7.70;;
1837;SDS011;918;50.796;6.772;2024-01-25T11:37:30;17.50;;;8.00;;
1837;SDS011;918;50.796;6.772;2024-01-25T11:39:55;11.80;;;6.40;;
1837;SDS011;918;50.796;6.772;2024-01-25T11:42:20;15.40;;;7.27;;
1837;SDS011;918;50.796;6.772;2024-01-25T11:44:45;16.73;;;7.93;;
1837;SDS011;918;50.796;6.772;2024-01-25T11:47:11;13.77;;;7.10;;
1837;SDS011;918;50.796;6.772;2024-01-25T11:49:36;18.93;;;7.27;;
1837;SDS011;918;50.796;6.772;2024-01-25T11:52:01;19.40;;;6.67;;
1837;SDS011;918;50.796;6.772;2024-01-25T11:54:29;22.40;;;9.50;;
1837;SDS011;918;50.796;6.772;2024-01-25T11:56:54;19.33;;;7.30;;
1837;SDS011;918;50.796;6.772;2024-01-25T11:59:19;23.43;;;7.93;;
1837;SDS011;918;50.796;6.772;2024-01-25T12:01:44;21.17;;;8.17;;
1837;SDS011;918;50.796;6.772;2024-01-25T12:04:10;23.57;;;8.37;;
1837;SDS011;918;50.796;6.772;2024-01-25T12:06:35;13.73;;;7.10;;
1837;SDS011;918;50.796;6.772;2024-01-25T12:09:09;14.73;;;6.50;;
1837;SDS011;918;50.796;6.772;2024-01-25T12:11:35;15.23;;;7.73;;
1837;SDS011;918;50.796;6.772;2024-01-25T12:14:00;15.07;;;6.53;;
1837;SDS011;918;50.796;6.772;2024-01-25T12:16:26;19.47;;;7.07;;
1837;SDS011;918;50.796;6.772;2024-01-25T12:18:51;17.63;;;6.20;;
1837;SDS011;918;50.796;6.772;2024-01-25T12:21:17;12.90;;;5.97;;
1837;SDS011;918;50.796;6.772;2024-01-25T12:23:43;14.80;;;6.50;;
1837;SDS011;918;50.796;6.772;2024-01-25T12:26:09;16.80;;;6.20;;
1837;SDS011;918;50.796;6.772;2024-01-25T12:28:35;21.10;;;8.47;;
1837;SDS011;918;50.796;6.772;2024-01-25T12:31:01;16.83;;;6.47;;
1837;SDS011;918;50.796;6.772;2024-01-25T12:33:28;13.90;;;6.70;;
1837;SDS011;918;50.796;6.772;2024-01-25T12:35:55;17.53;;;6.67;;
1837;SDS011;918;50.796;6.772;2024-01-25T12:38:21;16.27;;;6.10;;
1837;SDS011;918;50.796;6.772;2024-01-25T12:40:47;15.23;;;7.20;;
1837;SDS011;918;50.796;6.772;2024-01-25T12:43:14;20.93;;;5.63;;
1837;SDS011;918;50.796;6.772;2024-01-25T12:45:39;11.70;;;5.80;;
1837;SDS011;918;50.796;6.772;2024-01-25T12:48:05;11.77;;;5.87;;
1837;SDS011;918;50.796;6.772;2024-01-25T12:50:31;18.43;;;7.00;;
1837;SDS011;918;50.796;6.772;2024-01-25T12:52:57;16.93;;;6.50;;
1837;SDS011;918;50.796;6.772;2024-01-25T12:55:22;12.03;;;5.53;;
1837;SDS011;918;50.796;6.772;2024-01-25T12:57:47;17.67;;;5.97;;
1837;SDS011;918;50.796;6.772;2024-01-25T13:00:13;11.70;;;6.90;;
1837;SDS011;918;50.796;6.772;2024-01-25T13:02:38;18.00;;;6.80;;
1837;SDS011;918;50.796;6.772;2024-01-25T13:05:03;16.37;;;5.87;;
1837;SDS011;918;50.796;6.772;2024-01-25T13:07:29;17.63;;;6.17;;
1837;SDS011;918;50.796;6.772;2024-01-25T13:09:54;15.73;;;6.63;;
1837;SDS011;918;50.796;6.772;2024-01-25T13:12:20;15.93;;;5.47;;
1837;SDS011;918;50.796;6.772;2024-01-25T13:14:45;13.07;;;6.27;;
1837;SDS011;918;50.796;6.772;2024-01-25T13:17:10;13.20;;;6.17;;
1837;SDS011;918;50.796;6.772;2024-01-25T13:19:35;12.63;;;6.30;;
1837;SDS011;918;50.796;6.772;2024-01-25T13:22:01;14.43;;;5.60;;
1837;SDS011;918;50.796;6.772;2024-01-25T13:24:26;14.07;;;6.20;;
1837;SDS011;918;50.796;6.772;2024-01-25T13:26:51;16.03;;;5.43;;
1837;SDS011;918;50.796;6.772;2024-01-25T13:29:16;19.27;;;6.40;;
1837;SDS011;918;50.796;6.772;2024-01-25T13:31:42;12.63;;;5.20;;
1837;SDS011;918;50.796;6.772;2024-01-25T13:34:07;12.17;;;4.83;;
1837;SDS011;918;50.796;6.772;2024-01-25T13:36:32;10.97;;;5.53;;
1837;SDS011;918;50.796;6.772;2024-01-25T13:38:57;12.10;;;5.80;;
1837;SDS011;918;50.796;6.772;2024-01-25T13:41:23;20.63;;;6.07;;
1837;SDS011;918;50.796;6.772;2024-01-25T13:43:48;12.30;;;5.30;;
1837;SDS011;918;50.796;6.772;2024-01-25T13:46:13;10.80;;;4.83;;
1837;SDS011;918;50.796;6.772;2024-01-25T13:48:38;18.57;;;5.50;;
1837;SDS011;918;50.796;6.772;2024-01-25T13:51:04;9.73;;;5.20;;
1837;SDS011;918;50.796;6.772;2024-01-25T13:53:29;14.37;;;5.60;;
1837;SDS011;918;50.796;6.772;2024-01-25T13:55:54;16.90;;;6.03;;
1837;SDS011;918;50.796;6.772;2024-01-25T13:58:20;16.33;;;6.07;;
1837;SDS011;918;50.796;6.772;2024-01-25T14:00:45;13.57;;;5.67;;
1837;SDS011;918;50.796;6.772;2024-01-25T14:03:10;13.50;;;5.67;;
1837;SDS011;918;50.796;6.772;2024-01-25T14:05:36;13.90;;;5.23;;
1837;SDS011;918;50.796;6.772;2024-01-25T14:08:01;12.40;;;5.30;;
1837;SDS011;918;50.796;6.772;2024-01-25T14:10:27;13.20;;;4.67;;
1837;SDS011;918;50.796;6.772;2024-01-25T14:12:53;12.40;;;5.80;;
1837;SDS011;918;50.796;6.772;2024-01-25T14:15:18;14.17;;;6.00;;
1837;SDS011;918;50.796;6.772;2024-01-25T14:17:43;12.83;;;5.53;;
1837;SDS011;918;50.796;6.772;2024-01-25T14:20:09;12.73;;;4.83;;
1837;SDS011;918;50.796;6.772;2024-01-25T14:22:34;14.37;;;5.17;;
1837;SDS011;918;50.796;6.772;2024-01-25T14:25:00;15.90;;;5.80;;
1837;SDS011;918;50.796;6.772;2024-01-25T14:27:25;12.27;;;5.50;;
1837;SDS011;918;50.796;6.772;2024-01-25T14:29:51;13.33;;;6.10;;
1837;SDS011;918;50.796;6.772;2024-01-25T14:32:17;13.37;;;5.60;;
1837;SDS011;918;50.796;6.772;2024-01-25T14:34:44;15.63;;;5.93;;
1837;SDS011;918;50.796;6.772;2024-01-25T14:37:10;17.00;;;6.00;;
1837;SDS011;918;50.796;6.772;2024-01-25T14:39:38;19.03;;;7.20;;
1837;SDS011;918;50.796;6.772;2024-01-25T14:42:03;13.37;;;5.13;;
1837;SDS011;918;50.796;6.772;2024-01-25T14:44:29;12.73;;;5.80;;
1837;SDS011;918;50.796;6.772;2024-01-25T14:46:54;11.33;;;5.33;;
1837;SDS011;918;50.796;6.772;2024-01-25T14:49:19;10.10;;;5.00;;
1837;SDS011;918;50.796;6.772;2024-01-25T14:51:45;10.40;;;7.13;;
1837;SDS011;918;50.796;6.772;2024-01-25T14:54:10;15.00;;;5.60;;
1837;SDS011;918;50.796;6.772;2024-01-25T14:56:36;15.33;;;7.00;;
1837;SDS011;918;50.796;6.772;2024-01-25T14:59:02;10.87;;;5.37;;
1837;SDS011;918;50.796;6.772;2024-01-25T15:01:28;19.23;;;8.67;;
1837;SDS011;918;50.796;6.772;2024-01-25T15:03:55;19.60;;;7.60;;